Aérodrome :
LOGIN :

S'inscrire | Disclaimer

   EN    FR    IT 

 










Légende :    VFR   VFR Marginal   IFR   IFR Intensif   IFR Très Intensif
Visi : 
Plafond : 
>= 8 km
>= 3000ft
5 à 8 km
1000 à 3000 ft
1500m à 5 km
500 à 1000 ft
800 à 1500m
200 à 500 ft
< 800m
< 200 ft
Symboles :   Orages  Brouillard  Fortes neiges  Fortes précipitations  Vent > 20 kt
SIGMETs :   Divers  Orages  Givrage  Turbulence  Onde Orograph.  Cendres Volcan.






- Altitude de l'aérodrome : 90 ft
- Code IATA : NTE


LFRS - Nantes

DERNIER METAR :
  • 072230Z AUTO 09002KT CAVOK 15/10 Q1023 NOSIG

METARs EXPIRÉS :
  • 072200Z AUTO 08003KT CAVOK 16/10 Q1023 NOSIG
  • 072130Z AUTO VRB02KT CAVOK 16/10 Q1023 NOSIG
  • 072100Z AUTO VRB02KT CAVOK 15/10 Q1023 NOSIG
  • 072030Z AUTO 36002KT CAVOK 15/09 Q1023 NOSIG
  • 072000Z AUTO 34002KT CAVOK 16/08 Q1023 NOSIG

TAF TAF LFRS
Valide du 07 à 18h jusqu'au 09 à 00h UTC


071700Z 0718/0824 VRB02KT CAVOK
PROB30
TEMPO 0815/0818 SHRA SCT040TCU
TEMPO 0821/0824 3000 BR
PROB30
TEMPO 0822/0824 0800 FG SCT001
ATIS : +33 2 40 05 12 74



MET'MAP, la Météo Aéronautique d'un coup d'oeil ! - Copyright ORBIFLY Décembre 2007 - Disclaimer

ORBIFLY MET'MAP TEAM :

Programmation & Développement : Alexandra Zaïnal
Sur une idée originale de : Baudouin d'Aumeries
Assistance à la programmation : Marc-Olivier Méhu
Soutien technique & logistique : Manuel Goepfert

Contact : metmap@orbifly.com




SOURCES & CREDITS :

   NOAA